createdAt,value
2022-08-22T00:02:48.332Z,14.77
2022-08-22T00:02:58.608Z,13.57
2022-08-22T00:03:01.690Z,13.43
2022-08-22T00:04:33.363Z,14.88
2022-08-22T00:09:40.301Z,13.73
2022-08-22T00:14:43.761Z,15.15
2022-08-22T00:19:51.426Z,15.07
2022-08-22T00:24:54.680Z,13.60
2022-08-22T00:29:56.626Z,14.02
2022-08-22T00:34:58.891Z,14.52
2022-08-22T00:40:08.444Z,13.82
2022-08-22T00:45:29.666Z,14.60
2022-08-22T00:50:42.329Z,16.48
2022-08-22T00:56:04.747Z,12.30
2022-08-22T01:01:07.828Z,12.57
2022-08-22T01:06:25.118Z,13.02
2022-08-22T01:11:39.689Z,12.13
2022-08-22T01:17:00.421Z,12.57
2022-08-22T01:22:34.292Z,12.40
2022-08-22T01:28:01.860Z,12.73
2022-08-22T01:33:41.202Z,11.55
2022-08-22T01:39:19.579Z,10.90
2022-08-22T01:44:35.610Z,12.13
2022-08-22T01:49:39.892Z,13.85
2022-08-22T01:54:48.014Z,14.55
2022-08-22T01:59:48.748Z,11.70
2022-08-22T02:04:55.103Z,11.68
2022-08-22T02:10:05.975Z,12.80
2022-08-22T02:15:15.945Z,14.70
2022-08-22T02:20:23.324Z,12.40
2022-08-22T02:25:28.644Z,12.18
2022-08-22T02:30:42.179Z,12.70
2022-08-22T02:35:54.562Z,11.07
2022-08-22T02:41:04.831Z,13.65
2022-08-22T02:46:14.246Z,12.07
2022-08-22T02:51:19.294Z,13.25
2022-08-22T02:56:24.463Z,13.30
2022-08-22T03:01:33.404Z,11.80
2022-08-22T03:06:35.421Z,13.60
2022-08-22T03:11:39.228Z,11.15
2022-08-22T03:16:40.392Z,11.77
2022-08-22T03:21:44.934Z,11.90
2022-08-22T03:26:49.322Z,11.90
2022-08-22T03:37:16.740Z,12.82
2022-08-22T03:42:46.632Z,12.88
2022-08-22T03:47:58.588Z,12.32
2022-08-22T03:53:28.179Z,11.73
2022-08-22T03:58:46.920Z,10.73
2022-08-22T04:04:16.096Z,11.05
2022-08-22T04:09:51.380Z,14.25
2022-08-22T04:15:11.556Z,13.93
2022-08-22T04:20:38.896Z,13.98
2022-08-22T04:25:40.603Z,10.65
2022-08-22T04:30:44.909Z,10.35
2022-08-22T04:35:50.843Z,16.30
2022-08-22T04:40:53.935Z,12.23
2022-08-22T04:45:56.153Z,10.63
2022-08-22T04:50:57.977Z,9.85
2022-08-22T04:56:07.639Z,9.32
2022-08-22T05:01:12.991Z,14.60
2022-08-22T05:06:11.491Z,10.60
2022-08-22T05:11:11.154Z,12.45
2022-08-22T05:16:14.083Z,9.15
2022-08-22T05:21:13.952Z,10.15
2022-08-22T05:26:13.506Z,10.35
2022-08-22T05:31:14.389Z,8.65
2022-08-22T05:36:16.516Z,10.18
2022-08-22T05:41:25.662Z,8.95
2022-08-22T05:46:27.016Z,9.65
2022-08-22T05:51:27.131Z,9.88
2022-08-22T05:56:35.703Z,10.20
2022-08-22T06:01:41.785Z,9.10
2022-08-22T06:06:43.852Z,9.52
2022-08-22T06:11:51.929Z,10.93
2022-08-22T06:16:56.374Z,12.00
2022-08-22T06:21:55.802Z,8.48
2022-08-22T06:26:58.302Z,8.30
2022-08-22T06:31:58.061Z,9.25
2022-08-22T06:37:02.219Z,10.18
2022-08-22T06:42:03.290Z,7.68
2022-08-22T06:47:05.970Z,9.00
2022-08-22T06:52:08.153Z,14.02
2022-08-22T06:57:06.497Z,7.75
2022-08-22T07:02:16.381Z,8.27
2022-08-22T07:07:19.009Z,9.52
2022-08-22T07:12:19.127Z,9.10
2022-08-22T07:17:19.318Z,8.55
2022-08-22T07:22:22.477Z,10.15
2022-08-22T07:27:36.878Z,8.15
2022-08-22T07:32:43.097Z,10.02
2022-08-22T07:37:50.228Z,9.35
2022-08-22T07:42:52.147Z,7.80
2022-08-22T07:48:04.939Z,7.15
2022-08-22T07:53:13.888Z,7.60
2022-08-22T07:58:14.904Z,9.23
2022-08-22T08:03:13.039Z,8.07
2022-08-22T08:08:30.586Z,7.45
2022-08-22T08:13:34.090Z,9.38
2022-08-22T08:18:34.478Z,7.85
2022-08-22T08:23:39.564Z,8.30
2022-08-22T08:28:45.202Z,7.95
2022-08-22T08:33:47.379Z,7.47
2022-08-22T08:39:02.727Z,10.30
2022-08-22T08:44:12.388Z,8.05
2022-08-22T08:49:25.784Z,9.15
2022-08-22T08:54:48.689Z,6.85
2022-08-22T09:00:02.210Z,6.80
2022-08-22T09:05:41.207Z,9.45
2022-08-22T09:11:28.145Z,6.90
2022-08-22T09:16:51.567Z,7.03
2022-08-22T09:22:21.386Z,7.93
2022-08-22T09:27:29.513Z,5.88
2022-08-22T09:32:42.239Z,7.40
2022-08-22T09:38:09.314Z,8.15
2022-08-22T09:43:11.070Z,5.90
2022-08-22T09:48:21.248Z,5.05
2022-08-22T10:06:59.163Z,8.20
2022-08-22T10:12:44.780Z,9.95
2022-08-22T10:18:03.386Z,6.10
2022-08-22T10:23:15.775Z,7.30
2022-08-22T10:28:18.745Z,8.07
2022-08-22T10:33:36.457Z,7.32
2022-08-22T10:38:44.164Z,7.60
2022-08-22T10:44:09.601Z,6.65
2022-08-22T10:49:28.226Z,7.53
2022-08-22T10:54:44.168Z,5.78
2022-08-22T10:59:46.141Z,7.57
2022-08-22T11:05:07.567Z,5.75
2022-08-22T11:10:17.359Z,5.25
2022-08-22T11:15:27.230Z,6.95
2022-08-22T11:20:41.262Z,6.85
2022-08-22T11:25:52.359Z,6.43
2022-08-22T11:31:03.087Z,6.53
2022-08-22T11:36:26.140Z,5.47
2022-08-22T11:41:36.407Z,6.22
2022-08-22T11:46:36.816Z,5.95
2022-08-22T11:52:16.458Z,9.13
2022-08-22T11:57:20.575Z,6.50
2022-08-22T12:02:25.878Z,10.52
2022-08-22T12:07:28.722Z,8.57
2022-08-22T12:12:55.070Z,9.20
2022-08-22T12:18:21.941Z,6.88
2022-08-22T12:24:00.418Z,8.13
2022-08-22T12:29:20.241Z,7.97
2022-08-22T12:34:50.430Z,6.28
2022-08-22T12:40:22.044Z,6.20
2022-08-22T12:45:54.816Z,11.07
2022-08-22T12:50:57.898Z,6.57
2022-08-22T12:56:10.283Z,7.65
2022-08-22T13:01:12.462Z,8.38
2022-08-22T13:06:54.624Z,6.68
2022-08-22T13:12:02.474Z,6.18
2022-08-22T13:17:23.665Z,7.07
2022-08-22T13:22:26.891Z,6.15
2022-08-22T13:27:31.258Z,6.75
2022-08-22T13:32:35.607Z,7.75
2022-08-22T13:37:38.358Z,6.95
2022-08-22T13:42:45.117Z,7.13
2022-08-22T13:47:55.161Z,5.68
2022-08-22T13:53:07.087Z,6.18
2022-08-22T13:58:24.964Z,7.75
2022-08-22T14:03:32.173Z,9.82
2022-08-22T14:08:35.769Z,6.75
2022-08-22T14:18:45.533Z,5.40
2022-08-22T14:23:54.990Z,7.05
2022-08-22T14:28:57.437Z,5.60
2022-08-22T14:33:58.969Z,8.38
2022-08-22T14:39:30.271Z,5.75
2022-08-22T14:44:42.687Z,5.63
2022-08-22T14:49:52.620Z,8.80
2022-08-22T14:55:08.279Z,6.38
2022-08-22T15:00:11.427Z,10.40
2022-08-22T15:05:24.060Z,6.82
2022-08-22T15:11:31.962Z,8.25
2022-08-22T15:16:41.786Z,6.90
2022-08-22T15:22:14.072Z,6.53
2022-08-22T15:27:33.754Z,6.20
2022-08-22T15:32:41.911Z,7.47
2022-08-22T15:38:11.206Z,7.18
2022-08-22T15:43:20.065Z,8.32
2022-08-22T15:48:29.670Z,5.72
2022-08-22T15:53:33.562Z,7.25
2022-08-22T15:58:48.744Z,7.78
2022-08-22T16:03:58.346Z,8.25
2022-08-22T16:09:02.609Z,8.73
2022-08-22T16:14:22.307Z,7.90
2022-08-22T16:19:31.772Z,7.53
2022-08-22T16:25:05.791Z,8.35
2022-08-22T16:30:37.168Z,7.90
2022-08-22T16:36:25.733Z,8.02
2022-08-22T16:41:33.636Z,16.80
2022-08-22T16:47:05.661Z,9.15
2022-08-22T16:53:03.062Z,8.10
2022-08-22T16:58:50.228Z,8.80
2022-08-22T17:04:33.216Z,7.35
2022-08-22T17:10:07.904Z,7.82
2022-08-22T17:16:34.711Z,7.45
2022-08-22T17:22:08.733Z,7.88
2022-08-22T17:27:21.492Z,9.05
2022-08-22T17:32:34.890Z,8.05
2022-08-22T17:37:55.174Z,13.65
2022-08-22T17:43:10.107Z,12.30
2022-08-22T17:48:17.169Z,10.60
2022-08-22T17:53:29.525Z,13.02
2022-08-22T17:58:47.851Z,11.13
2022-08-22T18:04:09.376Z,11.57
2022-08-22T18:09:38.320Z,12.05
2022-08-22T18:15:07.968Z,12.70
2022-08-22T18:20:18.715Z,12.60
2022-08-22T18:25:59.632Z,12.00
2022-08-22T18:31:19.799Z,11.77
2022-08-22T18:36:45.792Z,15.40
2022-08-22T18:42:30.061Z,9.90
2022-08-22T18:47:33.776Z,10.50
2022-08-22T18:52:57.811Z,8.02
2022-08-22T18:58:41.536Z,17.15
2022-08-22T19:04:25.914Z,11.95
2022-08-22T19:10:13.209Z,15.63
2022-08-22T19:15:27.098Z,10.65
2022-08-22T19:26:47.185Z,12.73
2022-08-22T19:31:50.328Z,9.52
2022-08-22T19:37:33.126Z,11.65
2022-08-22T19:42:41.214Z,12.27
2022-08-22T19:47:58.129Z,8.70
2022-08-22T19:53:13.866Z,9.93
2022-08-22T19:58:32.581Z,12.52
2022-08-22T20:03:50.052Z,8.40
2022-08-22T20:09:03.121Z,9.43
2022-08-22T20:14:30.382Z,11.88
2022-08-22T20:20:19.338Z,8.88
2022-08-22T20:25:42.134Z,6.97
2022-08-22T20:30:50.092Z,10.75
2022-08-22T20:35:52.455Z,9.45
2022-08-22T20:41:00.529Z,10.55
2022-08-22T20:46:16.578Z,7.00
2022-08-22T20:51:21.525Z,6.40
2022-08-22T20:57:06.164Z,10.02
2022-08-22T21:02:40.747Z,9.75
2022-08-22T21:07:44.693Z,9.77
2022-08-22T21:13:03.267Z,8.10
2022-08-22T21:18:03.356Z,12.15
2022-08-22T21:23:04.561Z,7.40
2022-08-22T21:28:02.064Z,6.18
2022-08-22T21:33:06.005Z,9.15
2022-08-22T21:38:27.680Z,9.43
2022-08-22T21:43:30.963Z,8.15
2022-08-22T21:48:40.952Z,10.63
2022-08-22T21:53:39.931Z,8.88
2022-08-22T21:59:12.461Z,15.23
2022-08-22T22:04:10.998Z,8.48
2022-08-22T22:09:14.950Z,14.00
2022-08-22T22:14:17.330Z,7.10
2022-08-22T22:19:18.672Z,11.52
2022-08-22T22:24:23.981Z,9.10
2022-08-22T22:29:21.504Z,9.32
2022-08-22T22:34:19.626Z,15.60
2022-08-22T22:39:22.496Z,13.18
2022-08-22T22:44:23.923Z,15.43
2022-08-22T22:49:24.154Z,11.18
2022-08-22T22:54:27.343Z,14.13
2022-08-22T22:59:30.267Z,10.85
2022-08-22T23:04:36.056Z,12.43
2022-08-22T23:10:11.919Z,12.57
2022-08-22T23:15:22.591Z,11.55
2022-08-22T23:20:24.372Z,9.43
2022-08-22T23:25:26.356Z,9.93
2022-08-22T23:30:26.682Z,11.52
2022-08-22T23:35:30.554Z,11.68
2022-08-22T23:40:34.096Z,10.00
2022-08-22T23:45:33.249Z,11.30
2022-08-22T23:50:31.231Z,10.50
2022-08-22T23:55:28.379Z,9.45
